createdAt,value
2022-07-29T00:00:17.287Z,1.00
2022-07-29T00:02:44.930Z,0.90
2022-07-29T00:05:14.536Z,0.90
2022-07-29T00:07:42.327Z,0.95
2022-07-29T00:10:09.712Z,0.90
2022-07-29T00:12:36.935Z,0.95
2022-07-29T00:15:05.181Z,0.80
2022-07-29T00:17:32.389Z,0.80
2022-07-29T00:19:59.577Z,0.80
2022-07-29T00:22:28.113Z,1.13
2022-07-29T00:24:55.262Z,1.00
2022-07-29T00:27:22.930Z,1.00
2022-07-29T00:29:50.062Z,1.10
2022-07-29T00:32:17.253Z,0.82
2022-07-29T00:35:02.983Z,0.70
2022-07-29T00:37:30.106Z,1.10
2022-07-29T00:39:57.237Z,1.13
2022-07-29T00:42:24.407Z,0.98
2022-07-29T00:44:51.586Z,1.00
2022-07-29T00:47:18.809Z,1.00
2022-07-29T00:49:46.038Z,0.90
2022-07-29T00:52:16.869Z,1.00
2022-07-29T00:54:45.033Z,0.93
2022-07-29T00:57:12.981Z,1.00
2022-07-29T00:59:40.224Z,1.00
2022-07-29T01:02:07.425Z,1.23
2022-07-29T01:04:34.884Z,1.00
2022-07-29T01:07:03.140Z,1.00
2022-07-29T01:09:36.028Z,0.98
2022-07-29T01:12:15.453Z,0.82
2022-07-29T01:14:43.809Z,1.00
2022-07-29T01:17:14.119Z,1.10
2022-07-29T01:19:54.931Z,0.90
2022-07-29T01:22:40.901Z,0.95
2022-07-29T01:25:11.571Z,1.30
2022-07-29T01:27:47.954Z,1.05
2022-07-29T01:30:15.763Z,0.68
2022-07-29T01:32:44.052Z,1.20
2022-07-29T01:35:29.884Z,0.95
2022-07-29T01:38:07.080Z,1.00
2022-07-29T01:40:43.117Z,0.80
2022-07-29T01:43:16.203Z,0.80
2022-07-29T01:45:43.320Z,0.93
2022-07-29T01:48:19.397Z,0.90
2022-07-29T01:50:51.204Z,0.90
2022-07-29T01:53:22.968Z,0.90
2022-07-29T01:55:50.199Z,1.00
2022-07-29T01:58:19.936Z,1.00
2022-07-29T02:00:48.324Z,1.10
2022-07-29T02:03:17.733Z,0.90
2022-07-29T02:05:46.816Z,1.10
2022-07-29T02:08:15.015Z,1.08
2022-07-29T02:10:43.718Z,1.10
2022-07-29T02:13:12.607Z,0.90
2022-07-29T02:15:41.106Z,1.00
2022-07-29T02:18:09.979Z,0.90
2022-07-29T02:23:04.521Z,0.93
2022-07-29T02:25:37.075Z,0.90
2022-07-29T02:28:05.626Z,0.80
2022-07-29T02:30:33.273Z,1.02
2022-07-29T02:33:00.562Z,0.90
2022-07-29T02:35:27.831Z,0.90
2022-07-29T02:38:20.960Z,1.10
2022-07-29T02:40:48.559Z,1.00
2022-07-29T02:43:15.773Z,0.85
2022-07-29T02:45:43.529Z,0.80
2022-07-29T02:48:15.464Z,1.02
2022-07-29T02:50:46.011Z,0.90
2022-07-29T02:53:24.400Z,0.90
2022-07-29T02:55:56.299Z,0.85
2022-07-29T02:58:31.356Z,0.85
2022-07-29T03:00:58.898Z,0.90
2022-07-29T03:03:30.149Z,0.80
2022-07-29T03:05:58.402Z,1.13
2022-07-29T03:08:25.588Z,0.90
2022-07-29T03:10:53.046Z,0.93
2022-07-29T03:13:20.511Z,1.00
2022-07-29T03:15:48.653Z,0.73
2022-07-29T03:18:16.549Z,0.90
2022-07-29T03:20:43.732Z,0.90
2022-07-29T03:23:11.395Z,0.90
2022-07-29T03:25:38.580Z,1.00
2022-07-29T03:28:05.851Z,0.90
2022-07-29T03:30:33.097Z,0.93
2022-07-29T03:33:00.307Z,0.80
2022-07-29T03:35:27.868Z,0.85
2022-07-29T03:37:55.008Z,0.90
2022-07-29T03:40:24.469Z,1.00
2022-07-29T03:42:53.481Z,0.95
2022-07-29T03:45:21.315Z,0.77
2022-07-29T03:47:55.835Z,0.88
2022-07-29T03:50:26.322Z,0.90
2022-07-29T03:52:53.468Z,0.90
2022-07-29T03:55:20.904Z,0.68
2022-07-29T03:57:48.394Z,0.75
2022-07-29T04:00:16.765Z,0.90
2022-07-29T04:02:49.780Z,0.82
2022-07-29T04:05:17.578Z,0.80
2022-07-29T04:07:48.621Z,0.82
2022-07-29T04:10:16.808Z,0.80
2022-07-29T04:12:44.135Z,0.60
2022-07-29T04:15:11.586Z,0.80
2022-07-29T04:17:38.829Z,1.10
2022-07-29T04:20:06.495Z,1.00
2022-07-29T04:22:33.676Z,0.80
2022-07-29T04:25:03.980Z,0.90
2022-07-29T04:27:31.674Z,0.88
2022-07-29T04:29:58.871Z,0.82
2022-07-29T04:32:27.127Z,0.80
2022-07-29T04:34:54.242Z,0.80
2022-07-29T04:37:21.488Z,1.00
2022-07-29T04:39:48.765Z,1.00
2022-07-29T04:42:15.957Z,0.88
2022-07-29T04:44:44.703Z,1.17
2022-07-29T04:47:12.836Z,0.80
2022-07-29T04:49:40.653Z,0.85
2022-07-29T04:52:08.074Z,1.08
2022-07-29T04:54:35.241Z,1.00
2022-07-29T04:57:02.386Z,0.90
2022-07-29T04:59:29.515Z,1.00
2022-07-29T05:01:56.817Z,1.00
2022-07-29T05:04:24.125Z,0.90
2022-07-29T05:06:51.245Z,0.80
2022-07-29T05:09:18.414Z,0.80
2022-07-29T05:11:45.596Z,0.85
2022-07-29T05:14:12.923Z,0.98
2022-07-29T05:16:41.262Z,0.90
2022-07-29T05:19:12.260Z,0.90
2022-07-29T05:21:41.472Z,0.90
2022-07-29T05:24:08.983Z,0.70
2022-07-29T05:26:36.080Z,1.00
2022-07-29T05:29:03.363Z,0.90
2022-07-29T05:31:34.449Z,1.00
2022-07-29T05:34:02.046Z,1.00
2022-07-29T05:36:29.226Z,0.73
2022-07-29T05:38:56.408Z,0.80
2022-07-29T05:41:23.766Z,1.00
2022-07-29T05:43:50.868Z,0.70
2022-07-29T05:46:18.201Z,0.95
2022-07-29T05:48:45.459Z,1.02
2022-07-29T05:51:12.748Z,0.73
2022-07-29T05:53:39.847Z,0.90
2022-07-29T05:56:07.342Z,0.80
2022-07-29T05:58:34.748Z,0.73
2022-07-29T06:01:02.021Z,0.93
2022-07-29T06:03:29.444Z,0.80
2022-07-29T06:05:56.614Z,1.10
2022-07-29T06:08:24.342Z,0.90
2022-07-29T06:10:51.526Z,1.02
2022-07-29T06:13:18.752Z,1.00
2022-07-29T06:15:45.949Z,1.13
2022-07-29T06:18:14.343Z,0.70
2022-07-29T06:20:41.574Z,0.93
2022-07-29T06:23:08.957Z,1.13
2022-07-29T06:25:37.541Z,0.90
2022-07-29T06:28:05.021Z,0.77
2022-07-29T06:30:32.263Z,0.70
2022-07-29T06:32:59.550Z,1.27
2022-07-29T06:35:41.756Z,0.70
2022-07-29T06:38:19.699Z,0.95
2022-07-29T06:41:07.032Z,1.00
2022-07-29T06:43:36.108Z,0.90
2022-07-29T06:46:18.982Z,0.95
2022-07-29T06:48:46.745Z,1.30
2022-07-29T06:51:13.923Z,1.00
2022-07-29T06:53:59.418Z,1.05
2022-07-29T06:56:28.914Z,1.08
2022-07-29T06:58:56.087Z,0.90
2022-07-29T07:01:23.265Z,1.30
2022-07-29T07:03:50.437Z,0.90
2022-07-29T07:06:17.692Z,1.05
2022-07-29T07:08:44.843Z,1.13
2022-07-29T07:11:12.282Z,1.23
2022-07-29T07:13:39.458Z,1.02
2022-07-29T07:16:06.948Z,1.20
2022-07-29T07:18:34.146Z,0.90
2022-07-29T07:21:01.394Z,1.08
2022-07-29T07:23:28.547Z,1.10
2022-07-29T07:25:55.836Z,0.77
2022-07-29T07:28:25.069Z,1.05
2022-07-29T07:30:52.799Z,0.90
2022-07-29T07:33:20.283Z,0.90
2022-07-29T07:35:47.581Z,1.10
2022-07-29T07:38:14.903Z,1.00
2022-07-29T07:40:42.584Z,1.10
2022-07-29T07:43:09.834Z,1.05
2022-07-29T07:45:38.312Z,1.17
2022-07-29T07:53:00.408Z,0.93
2022-07-29T07:55:27.835Z,1.00
2022-07-29T07:57:55.402Z,1.10
2022-07-29T08:00:23.683Z,1.10
2022-07-29T08:02:51.712Z,1.10
2022-07-29T08:05:19.724Z,0.80
2022-07-29T08:07:47.736Z,1.20
2022-07-29T08:10:15.586Z,1.10
2022-07-29T08:12:43.218Z,0.88
2022-07-29T08:15:10.624Z,1.20
2022-07-29T08:17:37.839Z,1.10
2022-07-29T08:20:05.274Z,1.52
2022-07-29T08:22:32.477Z,1.20
2022-07-29T08:24:59.608Z,1.05
2022-07-29T08:27:44.753Z,1.08
2022-07-29T08:30:12.116Z,1.40
2022-07-29T08:32:55.728Z,1.50
2022-07-29T08:35:23.954Z,1.30
2022-07-29T08:37:51.595Z,1.20
2022-07-29T08:40:18.970Z,1.35
2022-07-29T08:42:46.099Z,1.50
2022-07-29T08:45:13.375Z,1.30
2022-07-29T08:47:41.444Z,1.60
2022-07-29T08:50:09.391Z,1.30
2022-07-29T08:52:40.640Z,1.42
2022-07-29T08:55:08.640Z,1.60
2022-07-29T08:57:37.239Z,1.58
2022-07-29T09:02:38.170Z,1.70
2022-07-29T09:05:06.116Z,1.90
2022-07-29T09:07:35.952Z,1.70
2022-07-29T09:10:03.382Z,2.20
2022-07-29T09:12:36.123Z,1.85
2022-07-29T09:15:05.279Z,1.92
2022-07-29T09:17:42.939Z,1.77
2022-07-29T09:20:11.888Z,1.90
2022-07-29T09:22:42.059Z,1.80
2022-07-29T09:25:09.606Z,2.08
2022-07-29T09:27:37.055Z,1.90
2022-07-29T09:30:11.442Z,1.60
2022-07-29T09:33:02.456Z,1.98
2022-07-29T09:35:29.955Z,1.85
2022-07-29T09:37:58.738Z,2.00
2022-07-29T09:45:28.668Z,1.88
2022-07-29T09:47:58.381Z,1.50
2022-07-29T09:50:36.546Z,1.70
2022-07-29T09:53:03.861Z,1.70
2022-07-29T09:55:31.119Z,1.70
2022-07-29T09:58:17.171Z,1.58
2022-07-29T10:00:44.612Z,1.40
2022-07-29T10:03:12.700Z,2.22
2022-07-29T10:08:09.734Z,1.60
2022-07-29T10:10:38.708Z,1.80
2022-07-29T10:13:10.899Z,2.05
2022-07-29T10:15:44.164Z,1.70
2022-07-29T10:18:12.338Z,1.30
2022-07-29T10:20:39.727Z,1.67
2022-07-29T10:23:07.282Z,1.55
2022-07-29T10:25:34.662Z,1.30
2022-07-29T10:28:01.880Z,1.42
2022-07-29T10:30:29.533Z,1.40
2022-07-29T10:32:56.722Z,1.50
2022-07-29T10:35:32.966Z,1.38
2022-07-29T10:38:06.479Z,1.70
2022-07-29T10:41:08.678Z,1.42
2022-07-29T10:43:39.106Z,1.30
2022-07-29T10:46:10.167Z,1.70
2022-07-29T10:48:58.026Z,1.67
2022-07-29T10:51:25.187Z,1.52
2022-07-29T10:53:54.000Z,1.33
2022-07-29T10:56:31.384Z,1.02
2022-07-29T10:59:17.283Z,1.15
2022-07-29T11:01:56.687Z,1.13
2022-07-29T11:04:45.325Z,1.30
2022-07-29T11:07:15.186Z,1.10
2022-07-29T11:09:42.455Z,1.50
2022-07-29T11:12:33.716Z,1.15
2022-07-29T11:15:03.522Z,1.20
2022-07-29T11:17:37.366Z,1.33
2022-07-29T11:20:33.389Z,1.15
2022-07-29T11:23:01.268Z,1.13
2022-07-29T11:25:42.851Z,1.33
2022-07-29T11:30:51.436Z,1.08
2022-07-29T11:36:28.347Z,1.00
2022-07-29T11:39:16.091Z,0.90
2022-07-29T11:41:45.651Z,1.00
2022-07-29T11:44:14.040Z,0.90
2022-07-29T11:46:53.978Z,1.15
2022-07-29T11:49:32.793Z,1.08
2022-07-29T11:52:04.045Z,1.17
2022-07-29T11:54:57.066Z,1.10
2022-07-29T11:57:23.024Z,1.30
2022-07-29T12:00:09.813Z,1.30
2022-07-29T12:02:41.064Z,1.00
2022-07-29T12:05:11.144Z,1.10
2022-07-29T12:07:01.472Z,1.23
2022-07-29T12:07:39.496Z,1.13
2022-07-29T12:10:11.674Z,1.05
2022-07-29T12:12:53.620Z,1.10
2022-07-29T12:15:22.409Z,1.30
2022-07-29T12:17:49.855Z,1.55
2022-07-29T12:20:24.356Z,1.02
2022-07-29T12:22:54.609Z,1.15
2022-07-29T12:25:38.522Z,0.98
2022-07-29T12:28:07.346Z,1.10
2022-07-29T12:33:01.728Z,0.93
2022-07-29T12:35:29.113Z,1.02
2022-07-29T12:37:56.459Z,1.20
2022-07-29T12:40:24.002Z,1.13
2022-07-29T12:43:14.098Z,1.27
2022-07-29T12:45:42.558Z,1.10
2022-07-29T12:48:09.756Z,0.90
2022-07-29T12:50:38.049Z,1.17
2022-07-29T12:53:12.350Z,1.05
2022-07-29T12:55:44.456Z,1.30
2022-07-29T12:58:11.729Z,1.00
2022-07-29T13:00:39.039Z,1.20
2022-07-29T13:03:07.281Z,1.10
2022-07-29T13:05:47.083Z,1.02
2022-07-29T13:08:20.441Z,1.15
2022-07-29T13:10:49.593Z,0.95
2022-07-29T13:13:16.875Z,1.10
2022-07-29T13:15:45.139Z,1.00
2022-07-29T13:18:30.848Z,1.13
2022-07-29T13:20:58.478Z,1.20
2022-07-29T13:23:25.844Z,1.15
2022-07-29T13:25:53.014Z,1.25
2022-07-29T13:28:22.497Z,1.17
2022-07-29T13:30:49.774Z,0.90
2022-07-29T13:33:17.124Z,1.00
2022-07-29T13:35:44.319Z,1.00
2022-07-29T13:38:11.456Z,1.08
2022-07-29T13:40:38.639Z,1.10
2022-07-29T13:43:05.792Z,1.10
2022-07-29T13:45:32.942Z,1.08
2022-07-29T13:48:00.114Z,1.05
2022-07-29T13:50:28.883Z,1.40
2022-07-29T13:55:23.357Z,1.10
2022-07-29T13:57:50.483Z,1.20
2022-07-29T14:00:17.709Z,1.00
2022-07-29T14:02:45.015Z,1.00
2022-07-29T14:05:12.501Z,1.23
2022-07-29T14:07:40.220Z,1.20
2022-07-29T14:10:08.152Z,1.10
2022-07-29T14:12:35.433Z,1.17
2022-07-29T14:15:02.553Z,1.00
2022-07-29T14:17:29.804Z,1.17
2022-07-29T14:19:57.083Z,1.13
2022-07-29T14:22:26.109Z,1.20
2022-07-29T14:24:53.763Z,0.95
2022-07-29T14:27:37.497Z,1.20
2022-07-29T14:30:05.910Z,1.15
2022-07-29T14:32:33.034Z,1.02
2022-07-29T14:35:00.231Z,1.13
2022-07-29T14:37:27.395Z,1.27
2022-07-29T14:39:55.487Z,1.42
2022-07-29T14:42:22.641Z,1.10
2022-07-29T14:44:50.483Z,1.10
2022-07-29T14:47:17.616Z,1.20
2022-07-29T14:49:44.805Z,1.33
2022-07-29T14:52:11.930Z,1.40
2022-07-29T14:54:39.097Z,1.38
2022-07-29T14:57:07.303Z,1.45
2022-07-29T14:59:34.507Z,1.52
2022-07-29T15:02:02.176Z,1.08
2022-07-29T15:04:29.604Z,1.25
2022-07-29T15:06:56.745Z,1.50
2022-07-29T15:09:24.073Z,1.10
2022-07-29T15:11:51.280Z,1.35
2022-07-29T15:14:18.395Z,1.30
2022-07-29T15:16:47.977Z,1.30
2022-07-29T15:19:15.444Z,1.45
2022-07-29T15:21:48.821Z,1.35
2022-07-29T15:24:17.462Z,1.40
2022-07-29T15:26:45.284Z,1.48
2022-07-29T15:29:12.455Z,1.70
2022-07-29T15:31:39.706Z,1.40
2022-07-29T15:34:07.885Z,1.50
2022-07-29T15:36:51.626Z,1.48
2022-07-29T15:39:20.555Z,1.65
2022-07-29T15:41:47.935Z,1.30
2022-07-29T15:44:15.141Z,1.33
2022-07-29T15:47:02.447Z,1.60
2022-07-29T15:49:48.119Z,1.67
2022-07-29T15:52:18.096Z,1.58
2022-07-29T15:54:45.827Z,1.40
2022-07-29T15:57:13.097Z,1.33
2022-07-29T15:59:40.257Z,1.63
2022-07-29T16:02:07.575Z,1.42
2022-07-29T16:04:34.814Z,1.80
2022-07-29T16:07:02.067Z,1.80
2022-07-29T16:09:29.187Z,1.33
2022-07-29T16:11:56.680Z,1.67
2022-07-29T16:14:24.212Z,1.50
2022-07-29T16:16:56.037Z,1.73
2022-07-29T16:19:23.699Z,1.33
2022-07-29T16:21:54.933Z,1.50
2022-07-29T16:24:29.683Z,1.45
2022-07-29T16:26:57.612Z,1.48
2022-07-29T16:29:25.206Z,1.38
2022-07-29T16:31:53.265Z,1.40
2022-07-29T16:34:20.660Z,1.60
2022-07-29T16:36:48.095Z,1.30
2022-07-29T16:39:15.240Z,1.48
2022-07-29T16:41:42.456Z,1.40
2022-07-29T16:44:09.811Z,1.38
2022-07-29T16:46:37.452Z,1.40
2022-07-29T16:49:08.872Z,1.50
2022-07-29T16:51:36.120Z,1.52
2022-07-29T16:54:03.323Z,1.67
2022-07-29T16:56:30.515Z,1.50
2022-07-29T16:59:00.532Z,1.50
2022-07-29T17:01:28.182Z,1.20
2022-07-29T17:04:07.548Z,1.55
2022-07-29T17:06:35.606Z,1.70
2022-07-29T17:09:03.527Z,1.70
2022-07-29T17:11:52.426Z,1.35
2022-07-29T17:14:18.260Z,1.40
2022-07-29T17:17:02.367Z,1.52
2022-07-29T17:19:31.354Z,1.35
2022-07-29T17:22:06.374Z,1.50
2022-07-29T17:24:38.255Z,1.75
2022-07-29T17:27:08.994Z,1.40
2022-07-29T17:29:36.335Z,1.10
2022-07-29T17:32:04.557Z,1.95
2022-07-29T17:34:35.368Z,1.60
2022-07-29T17:37:02.505Z,0.90
2022-07-29T17:39:29.683Z,1.80
2022-07-29T17:41:56.894Z,1.48
2022-07-29T17:44:25.130Z,1.38
2022-07-29T17:46:55.573Z,1.30
2022-07-29T17:49:23.318Z,1.50
2022-07-29T17:51:50.571Z,1.40
2022-07-29T17:54:19.427Z,1.50
2022-07-29T17:59:14.617Z,1.55
2022-07-29T18:01:41.873Z,1.48
2022-07-29T18:04:10.875Z,1.20
2022-07-29T18:06:38.926Z,1.20
2022-07-29T18:09:06.135Z,1.63
2022-07-29T18:11:33.252Z,1.25
2022-07-29T18:14:02.381Z,1.55
2022-07-29T18:16:29.764Z,1.40
2022-07-29T18:18:57.021Z,1.50
2022-07-29T18:21:43.591Z,1.30
2022-07-29T18:26:39.156Z,1.15
2022-07-29T18:29:06.583Z,1.40
2022-07-29T18:31:37.680Z,1.40
2022-07-29T18:34:05.022Z,1.25
2022-07-29T18:36:32.188Z,1.20
2022-07-29T18:38:59.310Z,1.05
2022-07-29T18:41:26.539Z,1.00
2022-07-29T18:43:53.634Z,1.20
2022-07-29T18:46:21.853Z,1.40
2022-07-29T18:48:49.517Z,1.30
2022-07-29T18:51:16.859Z,1.45
2022-07-29T18:53:44.678Z,1.20
2022-07-29T18:56:13.895Z,1.13
2022-07-29T18:58:41.110Z,1.42
2022-07-29T19:01:08.268Z,1.30
2022-07-29T19:03:35.535Z,1.10
2022-07-29T19:06:02.694Z,1.42
2022-07-29T19:08:32.856Z,1.30
2022-07-29T19:11:00.129Z,1.02
2022-07-29T19:13:27.247Z,1.13
2022-07-29T19:15:54.464Z,1.00
2022-07-29T19:18:24.842Z,1.20
2022-07-29T19:20:52.210Z,1.23
2022-07-29T19:23:19.706Z,1.45
2022-07-29T19:25:53.161Z,1.20
2022-07-29T19:28:21.456Z,1.20
2022-07-29T19:30:48.840Z,1.10
2022-07-29T19:33:17.668Z,1.50
2022-07-29T19:35:45.690Z,1.65
2022-07-29T19:38:13.095Z,1.30
2022-07-29T19:40:40.313Z,1.55
2022-07-29T19:43:50.504Z,1.73
2022-07-29T19:45:55.170Z,1.13
2022-07-29T19:48:22.275Z,1.10
2022-07-29T19:50:49.399Z,1.20
2022-07-29T19:53:16.629Z,1.30
2022-07-29T19:55:43.874Z,1.48
2022-07-29T19:58:11.070Z,1.50
2022-07-29T20:00:38.339Z,1.38
2022-07-29T20:03:07.385Z,1.23
2022-07-29T20:05:34.626Z,1.10
2022-07-29T20:08:04.845Z,1.08
2022-07-29T20:10:32.021Z,1.15
2022-07-29T20:12:59.247Z,1.05
2022-07-29T20:15:26.477Z,1.10
2022-07-29T20:17:57.466Z,1.10
2022-07-29T20:20:25.369Z,1.10
2022-07-29T20:22:53.576Z,1.20
2022-07-29T20:25:24.081Z,1.10
2022-07-29T20:27:52.522Z,1.20
2022-07-29T20:30:20.312Z,1.10
2022-07-29T20:32:48.612Z,1.85
2022-07-29T20:35:16.056Z,1.00
2022-07-29T20:37:52.218Z,1.20
2022-07-29T20:40:23.847Z,1.73
2022-07-29T20:42:51.131Z,1.70
2022-07-29T20:45:19.963Z,2.42
2022-07-29T20:47:47.258Z,2.03
2022-07-29T20:50:14.918Z,1.45
2022-07-29T20:52:44.108Z,1.70
2022-07-29T20:55:11.662Z,1.90
2022-07-29T20:57:39.989Z,1.85
2022-07-29T21:00:08.139Z,1.77
2022-07-29T21:02:35.374Z,1.67
2022-07-29T21:05:02.561Z,1.95
2022-07-29T21:07:29.843Z,1.70
2022-07-29T21:09:57.010Z,1.58
2022-07-29T21:12:24.181Z,1.70
2022-07-29T21:14:52.224Z,1.25
2022-07-29T21:17:22.407Z,1.67
2022-07-29T21:19:52.643Z,1.70
2022-07-29T21:22:29.239Z,1.52
2022-07-29T21:24:56.677Z,1.60
2022-07-29T21:27:42.330Z,1.75
2022-07-29T21:30:10.428Z,1.80
2022-07-29T21:32:40.598Z,1.50
2022-07-29T21:35:18.282Z,1.63
2022-07-29T21:37:56.272Z,1.80
2022-07-29T21:40:23.580Z,1.50
2022-07-29T21:42:51.897Z,1.33
2022-07-29T21:45:19.316Z,1.50
2022-07-29T21:47:46.498Z,1.33
2022-07-29T21:50:16.108Z,1.73
2022-07-29T21:52:43.299Z,1.55
2022-07-29T21:55:11.658Z,1.48
2022-07-29T21:57:38.883Z,1.70
2022-07-29T22:00:10.495Z,1.65
2022-07-29T22:02:37.671Z,1.50
2022-07-29T22:05:05.220Z,1.30
2022-07-29T22:07:55.338Z,1.30
2022-07-29T22:10:19.566Z,1.63
2022-07-29T22:12:46.780Z,1.50
2022-07-29T22:15:14.462Z,1.60
2022-07-29T22:17:42.119Z,1.40
2022-07-29T22:20:10.312Z,1.83
2022-07-29T22:22:37.495Z,1.35
2022-07-29T22:25:07.276Z,1.20
2022-07-29T22:27:34.660Z,1.58
2022-07-29T22:30:01.853Z,1.17
2022-07-29T22:32:28.998Z,1.65
2022-07-29T22:34:56.308Z,1.52
2022-07-29T22:37:23.656Z,1.55
2022-07-29T22:39:54.021Z,1.70
2022-07-29T22:42:21.316Z,1.50
2022-07-29T22:44:48.528Z,1.45
2022-07-29T22:47:15.642Z,1.90
2022-07-29T22:49:42.832Z,1.52
2022-07-29T22:52:09.963Z,1.60
2022-07-29T22:54:38.308Z,1.70
2022-07-29T22:57:06.039Z,1.70
2022-07-29T22:59:33.160Z,1.50
2022-07-29T23:02:03.391Z,1.50
2022-07-29T23:04:30.565Z,1.90
2022-07-29T23:06:58.155Z,1.70
2022-07-29T23:09:25.538Z,1.35
2022-07-29T23:11:52.676Z,1.50
2022-07-29T23:14:19.803Z,1.70
2022-07-29T23:16:47.058Z,1.65
2022-07-29T23:19:14.410Z,1.17
2022-07-29T23:21:41.562Z,1.33
2022-07-29T23:24:08.714Z,1.90
2022-07-29T23:26:36.863Z,1.60
2022-07-29T23:29:04.560Z,1.40
2022-07-29T23:31:32.416Z,1.65
2022-07-29T23:33:59.516Z,1.10
2022-07-29T23:36:26.945Z,1.55
2022-07-29T23:38:55.350Z,1.85
2022-07-29T23:41:23.763Z,1.70
2022-07-29T23:43:51.325Z,1.50
2022-07-29T23:46:18.521Z,1.45
2022-07-29T23:48:51.380Z,1.58
2022-07-29T23:51:18.600Z,1.60
2022-07-29T23:53:53.363Z,1.50
2022-07-29T23:56:21.783Z,1.30
2022-07-29T23:58:48.959Z,1.40
